Time;durP1;ratioP1;P1;durP2;ratioP2;P2;SDS_P1;SDS_P2;PMS_P1;PMS_P2;Temp;Humidity;BMP_temperature;BMP_pressure;BME280_temperature;BME280_humidity;BME280_pressure;Samples;Min_cycle;Max_cycle;Signal;HPM_P1;HPM_P2
2024/01/21 00:01:48;;;;;;;17.65;13.85;;;;;;;;;;4936399;29;20032;-61
2024/01/21 00:04:13;;;;;;;13.73;12.05;;;;;;;;;;4936825;29;20043;-61
2024/01/21 00:06:39;;;;;;;17.17;11.68;;;;;;;;;;4935036;29;20028;-61
2024/01/21 00:09:04;;;;;;;17.55;14.38;;;;;;;;;;4937978;29;20042;-61
2024/01/21 00:11:29;;;;;;;20.27;13.18;;;;;;;;;;4935020;29;20027;-61
2024/01/21 00:13:55;;;;;;;17.83;12.80;;;;;;;;;;4935177;29;20043;-59
2024/01/21 00:16:20;;;;;;;16.40;11.02;;;;;;;;;;4934982;29;20163;-59
2024/01/21 00:18:45;;;;;;;18.33;10.68;;;;;;;;;;4936919;29;20067;-59
2024/01/21 00:21:11;;;;;;;16.40;11.13;;;;;;;;;;4934466;29;20055;-60
2024/01/21 00:23:36;;;;;;;16.95;10.73;;;;;;;;;;4938660;29;20019;-61
2024/01/21 00:26:02;;;;;;;17.90;10.77;;;;;;;;;;4932001;29;20063;-61
2024/01/21 00:28:27;;;;;;;12.95;10.02;;;;;;;;;;4933863;29;20031;-61
2024/01/21 00:30:52;;;;;;;13.80;10.38;;;;;;;;;;4933272;29;20036;-60
2024/01/21 00:33:20;;;;;;;16.27;12.10;;;;;;;;;;4937396;29;20091;-60
2024/01/21 00:35:45;;;;;;;13.65;10.25;;;;;;;;;;4933857;29;20055;-58
2024/01/21 00:38:11;;;;;;;15.75;10.30;;;;;;;;;;4934692;29;20032;-60
2024/01/21 00:40:37;;;;;;;15.68;9.75;;;;;;;;;;4924372;29;20036;-60
2024/01/21 00:43:02;;;;;;;10.80;8.88;;;;;;;;;;4938310;29;20028;-61
2024/01/21 00:45:28;;;;;;;13.52;9.30;;;;;;;;;;4934161;29;20532;-60
2024/01/21 00:47:54;;;;;;;14.57;9.90;;;;;;;;;;4936851;29;20027;-61
2024/01/21 00:50:20;;;;;;;13.20;9.93;;;;;;;;;;4935921;29;20046;-60
2024/01/21 00:52:46;;;;;;;14.85;10.07;;;;;;;;;;4938073;29;20071;-60
2024/01/21 00:55:11;;;;;;;15.38;10.98;;;;;;;;;;4936125;29;20466;-61
2024/01/21 00:57:37;;;;;;;15.73;11.88;;;;;;;;;;4936228;29;20035;-61
2024/01/21 01:00:04;;;;;;;15.63;11.48;;;;;;;;;;4936251;29;20039;-61
2024/01/21 01:02:30;;;;;;;14.45;10.25;;;;;;;;;;4936532;29;20122;-57
2024/01/21 01:04:55;;;;;;;12.05;9.95;;;;;;;;;;4929429;29;20064;-60
2024/01/21 01:07:21;;;;;;;14.93;9.35;;;;;;;;;;4936851;29;20031;-61
2024/01/21 01:09:46;;;;;;;17.02;10.68;;;;;;;;;;4936767;29;20406;-61
2024/01/21 01:12:12;;;;;;;12.07;8.93;;;;;;;;;;4933359;29;20048;-61
2024/01/21 01:14:40;;;;;;;12.13;8.05;;;;;;;;;;4934803;29;20561;-61
2024/01/21 01:17:06;;;;;;;14.32;9.48;;;;;;;;;;4933904;29;20052;-61
2024/01/21 01:19:32;;;;;;;16.05;10.57;;;;;;;;;;4934200;29;20035;-61
2024/01/21 01:21:57;;;;;;;11.10;8.18;;;;;;;;;;4936010;29;20024;-60
2024/01/21 01:24:23;;;;;;;11.20;8.93;;;;;;;;;;4931282;29;20040;-61
2024/01/21 01:26:48;;;;;;;13.30;9.52;;;;;;;;;;4932687;29;20032;-60
2024/01/21 01:29:13;;;;;;;15.43;10.27;;;;;;;;;;4934075;29;20106;-62
2024/01/21 01:31:39;;;;;;;9.88;7.43;;;;;;;;;;4933048;29;20015;-60
2024/01/21 01:34:04;;;;;;;14.55;10.25;;;;;;;;;;4934188;29;20094;-61
2024/01/21 01:36:29;;;;;;;14.10;10.10;;;;;;;;;;4933729;29;20028;-61
2024/01/21 01:38:55;;;;;;;13.10;9.45;;;;;;;;;;4935498;29;20090;-61
2024/01/21 01:41:20;;;;;;;12.88;9.82;;;;;;;;;;4933697;29;20123;-61
2024/01/21 01:43:46;;;;;;;14.02;9.32;;;;;;;;;;4934308;29;20043;-60
2024/01/21 01:46:12;;;;;;;13.05;9.27;;;;;;;;;;4937792;29;20044;-60
2024/01/21 01:48:37;;;;;;;14.68;8.88;;;;;;;;;;4936040;29;20043;-59
2024/01/21 01:51:06;;;;;;;15.13;9.90;;;;;;;;;;4935717;29;20562;-61
2024/01/21 01:53:34;;;;;;;11.80;8.10;;;;;;;;;;4935745;29;20062;-59
2024/01/21 01:56:00;;;;;;;14.25;8.75;;;;;;;;;;4939718;29;20068;-61
2024/01/21 01:58:27;;;;;;;14.65;9.68;;;;;;;;;;4936814;29;20630;-60
2024/01/21 02:00:53;;;;;;;11.82;9.57;;;;;;;;;;4939719;29;20053;-59
2024/01/21 02:03:18;;;;;;;13.20;9.60;;;;;;;;;;4939136;29;20103;-58
2024/01/21 02:05:44;;;;;;;12.15;8.68;;;;;;;;;;4936525;29;20039;-59
2024/01/21 02:08:10;;;;;;;15.52;9.52;;;;;;;;;;4936870;29;20430;-60
2024/01/21 02:10:35;;;;;;;13.93;8.98;;;;;;;;;;4938278;29;20040;-59
2024/01/21 02:13:00;;;;;;;11.70;8.85;;;;;;;;;;4938049;29;20079;-59
2024/01/21 02:15:26;;;;;;;11.80;8.88;;;;;;;;;;4939175;29;20119;-60
2024/01/21 02:17:51;;;;;;;14.45;8.90;;;;;;;;;;4932322;29;20031;-61
2024/01/21 02:20:16;;;;;;;10.38;7.45;;;;;;;;;;4938115;29;20054;-60
2024/01/21 02:22:42;;;;;;;10.18;7.68;;;;;;;;;;4937980;29;20030;-60
2024/01/21 02:25:09;;;;;;;10.82;7.20;;;;;;;;;;4939180;29;20036;-60
2024/01/21 02:27:35;;;;;;;12.27;8.27;;;;;;;;;;4929511;29;20059;-61
2024/01/21 02:30:01;;;;;;;9.82;7.68;;;;;;;;;;4940061;29;20075;-58
2024/01/21 02:32:27;;;;;;;11.45;7.40;;;;;;;;;;4940444;29;20435;-60
2024/01/21 02:34:53;;;;;;;11.20;7.38;;;;;;;;;;4938776;29;20035;-60
2024/01/21 02:37:18;;;;;;;9.50;7.90;;;;;;;;;;4934879;29;20102;-60
2024/01/21 02:39:44;;;;;;;9.80;7.80;;;;;;;;;;4937341;29;20127;-60
2024/01/21 02:42:10;;;;;;;8.77;6.55;;;;;;;;;;4935749;29;20098;-60
2024/01/21 02:44:35;;;;;;;12.38;7.75;;;;;;;;;;4938310;29;20044;-61
2024/01/21 02:47:01;;;;;;;11.80;8.02;;;;;;;;;;4940185;29;20109;-61
2024/01/21 02:49:28;;;;;;;9.00;6.00;;;;;;;;;;4937332;29;20040;-61
2024/01/21 02:51:55;;;;;;;10.15;5.72;;;;;;;;;;4935698;29;20023;-60
2024/01/21 02:54:20;;;;;;;11.85;6.13;;;;;;;;;;4939331;29;20039;-60
2024/01/21 02:56:45;;;;;;;11.50;6.68;;;;;;;;;;4937076;29;20055;-61
2024/01/21 02:59:11;;;;;;;8.70;5.68;;;;;;;;;;4937406;29;20134;-59
2024/01/21 03:01:36;;;;;;;9.00;5.60;;;;;;;;;;4937177;29;20032;-61
2024/01/21 03:04:02;;;;;;;9.32;6.32;;;;;;;;;;4934786;29;20047;-60
2024/01/21 03:06:27;;;;;;;8.55;5.55;;;;;;;;;;4934646;29;20032;-60
2024/01/21 03:08:52;;;;;;;6.38;5.07;;;;;;;;;;4936467;29;20055;-60
2024/01/21 03:11:18;;;;;;;13.07;9.30;;;;;;;;;;4939127;29;20126;-60
2024/01/21 03:13:43;;;;;;;8.18;6.57;;;;;;;;;;4937075;29;20020;-60
2024/01/21 03:16:10;;;;;;;8.05;4.72;;;;;;;;;;4930624;29;20150;-61
2024/01/21 03:18:38;;;;;;;8.25;5.40;;;;;;;;;;4937294;29;20034;-61
2024/01/21 03:21:05;;;;;;;10.45;7.05;;;;;;;;;;4935265;29;20047;-59
2024/01/21 03:23:31;;;;;;;9.32;5.72;;;;;;;;;;4933913;29;20082;-60
2024/01/21 03:25:56;;;;;;;6.07;4.80;;;;;;;;;;4937823;29;20031;-58
2024/01/21 03:28:21;;;;;;;7.53;4.45;;;;;;;;;;4934311;29;20051;-59
2024/01/21 03:30:47;;;;;;;8.02;4.75;;;;;;;;;;4939039;29;20535;-60
2024/01/21 03:33:12;;;;;;;7.38;5.40;;;;;;;;;;4938372;29;20049;-61
2024/01/21 03:35:37;;;;;;;8.07;5.32;;;;;;;;;;4936312;29;20028;-61
2024/01/21 03:38:03;;;;;;;9.75;5.65;;;;;;;;;;4938473;29;20055;-61
2024/01/21 03:40:28;;;;;;;8.98;4.82;;;;;;;;;;4935149;29;20036;-60
2024/01/21 03:42:54;;;;;;;7.13;5.45;;;;;;;;;;4939909;29;20060;-60
2024/01/21 03:45:19;;;;;;;6.22;4.38;;;;;;;;;;4938422;29;20565;-60
2024/01/21 03:47:44;;;;;;;7.03;4.72;;;;;;;;;;4936774;29;20027;-59
2024/01/21 03:50:10;;;;;;;7.93;6.13;;;;;;;;;;4936866;29;20082;-58
2024/01/21 03:52:35;;;;;;;7.53;4.45;;;;;;;;;;4931412;29;20463;-61
2024/01/21 03:55:01;;;;;;;7.85;4.50;;;;;;;;;;4938182;29;20055;-60
2024/01/21 03:57:27;;;;;;;5.95;4.63;;;;;;;;;;4938013;29;20047;-60
2024/01/21 03:59:52;;;;;;;8.40;3.90;;;;;;;;;;4937926;29;20047;-61
2024/01/21 04:02:19;;;;;;;9.82;3.72;;;;;;;;;;4937251;29;20028;-59
2024/01/21 04:04:45;;;;;;;6.05;3.50;;;;;;;;;;4937486;29;20067;-61
2024/01/21 04:07:10;;;;;;;7.22;4.50;;;;;;;;;;4937001;29;20035;-59
2024/01/21 04:09:36;;;;;;;9.52;3.80;;;;;;;;;;4932881;29;20039;-61
2024/01/21 04:12:01;;;;;;;9.10;3.40;;;;;;;;;;4936386;29;20027;-60
2024/01/21 04:14:26;;;;;;;4.70;3.60;;;;;;;;;;4937647;29;20043;-61
2024/01/21 04:16:52;;;;;;;7.60;3.75;;;;;;;;;;4936013;29;20050;-60
2024/01/21 04:19:18;;;;;;;11.13;5.70;;;;;;;;;;4936207;29;20114;-60
2024/01/21 04:21:43;;;;;;;6.53;3.78;;;;;;;;;;4937105;29;20028;-60
2024/01/21 04:24:09;;;;;;;8.32;5.32;;;;;;;;;;4938335;29;20040;-61
2024/01/21 04:26:34;;;;;;;4.20;3.38;;;;;;;;;;4936540;29;20050;-58
2024/01/21 04:29:00;;;;;;;8.45;3.55;;;;;;;;;;4930267;29;20046;-58
2024/01/21 04:31:25;;;;;;;6.28;3.28;;;;;;;;;;4936860;29;20043;-60
2024/01/21 04:33:51;;;;;;;8.43;3.83;;;;;;;;;;4937136;29;20074;-61
2024/01/21 04:36:22;;;;;;;5.20;3.35;;;;;;;;;;4937900;29;20028;-59
2024/01/21 04:38:48;;;;;;;7.47;4.53;;;;;;;;;;4935811;29;20119;-58
2024/01/21 04:41:14;;;;;;;8.50;3.80;;;;;;;;;;4935895;29;20063;-61
2024/01/21 04:43:39;;;;;;;7.55;4.35;;;;;;;;;;4929108;29;20035;-61
2024/01/21 04:46:06;;;;;;;5.93;4.25;;;;;;;;;;4936000;29;20028;-60
2024/01/21 04:48:31;;;;;;;5.40;3.38;;;;;;;;;;4936378;29;20035;-60
2024/01/21 04:50:57;;;;;;;4.72;2.90;;;;;;;;;;4935445;29;20102;-62
2024/01/21 04:53:22;;;;;;;8.15;4.10;;;;;;;;;;4937525;29;20051;-61
2024/01/21 04:55:48;;;;;;;9.48;3.10;;;;;;;;;;4935324;29;20410;-60
2024/01/21 04:58:13;;;;;;;6.63;4.25;;;;;;;;;;4937132;29;20031;-61
2024/01/21 05:00:38;;;;;;;6.53;3.75;;;;;;;;;;4930993;29;20032;-59
2024/01/21 05:03:04;;;;;;;5.78;3.78;;;;;;;;;;4937814;29;20132;-60
2024/01/21 05:05:29;;;;;;;6.20;3.80;;;;;;;;;;4936734;29;20043;-60
2024/01/21 05:07:55;;;;;;;9.00;4.50;;;;;;;;;;4937048;29;20031;-61
2024/01/21 05:10:20;;;;;;;5.93;4.00;;;;;;;;;;4935595;28;20118;-60
2024/01/21 05:12:45;;;;;;;9.77;3.88;;;;;;;;;;4935514;29;20024;-59
2024/01/21 05:15:11;;;;;;;5.13;3.80;;;;;;;;;;4935682;29;20055;-58
2024/01/21 05:17:36;;;;;;;5.85;3.50;;;;;;;;;;4935541;29;20450;-59
2024/01/21 05:20:03;;;;;;;6.63;3.65;;;;;;;;;;4934084;29;20043;-60
2024/01/21 05:22:28;;;;;;;6.50;3.97;;;;;;;;;;4932991;29;20059;-60
2024/01/21 05:24:54;;;;;;;5.55;3.85;;;;;;;;;;4936560;29;20043;-59
2024/01/21 05:27:19;;;;;;;6.90;4.07;;;;;;;;;;4935747;29;20439;-59
2024/01/21 05:29:45;;;;;;;7.38;4.22;;;;;;;;;;4930650;29;20462;-61
2024/01/21 05:32:10;;;;;;;6.38;3.45;;;;;;;;;;4934340;29;20027;-61
2024/01/21 05:34:35;;;;;;;4.95;2.92;;;;;;;;;;4937319;29;20534;-60
2024/01/21 05:37:01;;;;;;;4.10;3.50;;;;;;;;;;4929765;29;20101;-60
2024/01/21 05:39:26;;;;;;;7.38;3.42;;;;;;;;;;4936804;28;20058;-60
2024/01/21 05:42:05;;;;;;;5.22;3.35;;;;;;;;;;4930604;29;20446;-60
2024/01/21 05:44:31;;;;;;;4.68;2.20;;;;;;;;;;4929003;29;20047;-60
2024/01/21 05:46:56;;;;;;;5.32;2.35;;;;;;;;;;4933814;29;20031;-61
2024/01/21 05:49:23;;;;;;;4.65;3.85;;;;;;;;;;4928513;29;20048;-60
2024/01/21 05:51:48;;;;;;;6.53;2.60;;;;;;;;;;4934273;29;20032;-60
2024/01/21 05:54:14;;;;;;;6.25;3.05;;;;;;;;;;4930150;29;20052;-60
2024/01/21 05:56:39;;;;;;;5.05;1.92;;;;;;;;;;4933530;29;20074;-61
2024/01/21 05:59:04;;;;;;;4.15;3.25;;;;;;;;;;4933420;29;20107;-60
2024/01/21 06:01:30;;;;;;;5.10;2.72;;;;;;;;;;4936985;29;20102;-60
2024/01/21 06:03:55;;;;;;;7.90;2.38;;;;;;;;;;4925549;29;20040;-59
2024/01/21 06:06:21;;;;;;;5.25;2.92;;;;;;;;;;4933839;29;20055;-59
2024/01/21 06:08:46;;;;;;;4.30;2.78;;;;;;;;;;4936125;29;21082;-61
2024/01/21 06:11:11;;;;;;;6.10;3.00;;;;;;;;;;4932325;29;20382;-59
2024/01/21 06:13:37;;;;;;;6.03;4.15;;;;;;;;;;4937656;29;20558;-59
2024/01/21 06:16:03;;;;;;;7.05;3.13;;;;;;;;;;4927551;29;20131;-61
2024/01/21 06:18:28;;;;;;;6.97;3.55;;;;;;;;;;4932204;29;20505;-57
2024/01/21 06:20:54;;;;;;;5.22;2.55;;;;;;;;;;4932036;29;20032;-59
2024/01/21 06:23:19;;;;;;;8.32;4.00;;;;;;;;;;4934536;29;20379;-58
2024/01/21 06:25:45;;;;;;;7.50;4.38;;;;;;;;;;4933965;29;20451;-59
2024/01/21 06:28:10;;;;;;;7.15;3.47;;;;;;;;;;4934867;29;20031;-59
2024/01/21 06:30:35;;;;;;;8.98;4.32;;;;;;;;;;4934840;29;20466;-60
2024/01/21 06:33:01;;;;;;;5.28;4.00;;;;;;;;;;4935802;29;20569;-61
2024/01/21 06:35:27;;;;;;;6.75;4.60;;;;;;;;;;4935889;29;20498;-61
2024/01/21 06:37:52;;;;;;;8.38;5.18;;;;;;;;;;4927347;29;20027;-61
2024/01/21 06:40:18;;;;;;;8.98;3.95;;;;;;;;;;4938717;29;20048;-61
2024/01/21 06:42:44;;;;;;;6.03;3.88;;;;;;;;;;4933481;29;20074;-60
2024/01/21 06:45:12;;;;;;;6.00;2.70;;;;;;;;;;4935933;29;20047;-61
2024/01/21 06:47:38;;;;;;;5.35;3.72;;;;;;;;;;4939973;29;20031;-61
2024/01/21 06:50:04;;;;;;;6.38;3.42;;;;;;;;;;4938555;28;20032;-59
2024/01/21 06:52:30;;;;;;;7.00;5.30;;;;;;;;;;4936232;29;20088;-59
2024/01/21 06:54:55;;;;;;;6.30;3.33;;;;;;;;;;4938659;29;20110;-61
2024/01/21 06:57:21;;;;;;;5.60;3.72;;;;;;;;;;4935876;29;20525;-61
2024/01/21 06:59:46;;;;;;;6.75;3.85;;;;;;;;;;4936741;29;20039;-61
2024/01/21 07:02:11;;;;;;;5.85;3.53;;;;;;;;;;4933170;29;20038;-58
2024/01/21 07:04:37;;;;;;;5.57;3.42;;;;;;;;;;4930401;29;20200;-59
2024/01/21 07:07:03;;;;;;;6.55;3.08;;;;;;;;;;4930196;29;20032;-59
2024/01/21 07:09:29;;;;;;;8.43;3.85;;;;;;;;;;4935629;29;20095;-60
2024/01/21 07:11:55;;;;;;;5.55;3.72;;;;;;;;;;4939923;29;20071;-61
2024/01/21 07:14:20;;;;;;;6.25;3.60;;;;;;;;;;4937501;29;20553;-60
2024/01/21 07:16:46;;;;;;;5.97;4.28;;;;;;;;;;4933023;29;20047;-60
2024/01/21 07:19:11;;;;;;;8.60;5.20;;;;;;;;;;4934878;29;20035;-60
2024/01/21 07:21:36;;;;;;;8.25;5.18;;;;;;;;;;4934637;29;20036;-61
2024/01/21 07:24:02;;;;;;;8.95;5.53;;;;;;;;;;4935897;29;21756;-60
2024/01/21 07:26:28;;;;;;;6.32;4.20;;;;;;;;;;4936519;29;20055;-58
2024/01/21 07:28:53;;;;;;;5.57;2.95;;;;;;;;;;4927242;29;20114;-60
2024/01/21 07:31:19;;;;;;;4.07;3.63;;;;;;;;;;4938602;29;20401;-58
2024/01/21 07:33:44;;;;;;;6.90;3.97;;;;;;;;;;4933534;29;20035;-60
2024/01/21 07:36:11;;;;;;;5.43;3.20;;;;;;;;;;4933307;29;20032;-59
2024/01/21 07:38:36;;;;;;;7.93;5.28;;;;;;;;;;4939402;29;20055;-58
2024/01/21 07:41:03;;;;;;;11.80;5.15;;;;;;;;;;4933640;29;21796;-56
2024/01/21 07:43:29;;;;;;;6.22;3.45;;;;;;;;;;4933075;29;20020;-61
2024/01/21 07:45:54;;;;;;;6.18;4.65;;;;;;;;;;4938257;29;20040;-60
2024/01/21 07:48:20;;;;;;;7.03;3.78;;;;;;;;;;4936805;29;20083;-59
2024/01/21 07:50:46;;;;;;;5.97;2.40;;;;;;;;;;4935527;29;20035;-59
2024/01/21 07:53:12;;;;;;;7.22;3.20;;;;;;;;;;4927625;29;20023;-60
2024/01/21 07:55:37;;;;;;;4.40;2.67;;;;;;;;;;4932175;29;20325;-59
2024/01/21 07:58:03;;;;;;;6.97;2.88;;;;;;;;;;4935531;29;20032;-60
2024/01/21 08:00:29;;;;;;;5.05;3.50;;;;;;;;;;4937577;29;20569;-60
2024/01/21 08:02:54;;;;;;;5.28;3.00;;;;;;;;;;4936558;29;20031;-59
2024/01/21 08:05:20;;;;;;;7.93;3.35;;;;;;;;;;4934350;29;20067;-60
2024/01/21 08:07:49;;;;;;;5.32;2.67;;;;;;;;;;4937257;29;20079;-60
2024/01/21 08:10:14;;;;;;;4.72;3.47;;;;;;;;;;4935967;29;20078;-59
2024/01/21 08:12:39;;;;;;;5.20;3.10;;;;;;;;;;4932904;29;20107;-60
2024/01/21 08:15:05;;;;;;;8.50;2.97;;;;;;;;;;4932686;28;20118;-60
2024/01/21 08:17:31;;;;;;;5.50;3.67;;;;;;;;;;4933334;29;20102;-60
2024/01/21 08:19:56;;;;;;;4.18;2.13;;;;;;;;;;4937464;29;20036;-59
2024/01/21 08:22:21;;;;;;;6.68;3.35;;;;;;;;;;4930464;29;20533;-59
2024/01/21 08:24:51;;;;;;;4.70;2.72;;;;;;;;;;4936176;29;20046;-60
2024/01/21 08:27:19;;;;;;;7.65;3.42;;;;;;;;;;4936405;29;20398;-60
2024/01/21 08:29:45;;;;;;;9.05;3.85;;;;;;;;;;4935012;29;20043;-59
2024/01/21 08:32:10;;;;;;;4.53;2.78;;;;;;;;;;4935633;29;20027;-60
2024/01/21 08:34:36;;;;;;;5.50;2.90;;;;;;;;;;4935886;29;20051;-58
2024/01/21 08:37:01;;;;;;;4.38;2.40;;;;;;;;;;4939749;29;20034;-57
2024/01/21 08:39:27;;;;;;;5.20;3.30;;;;;;;;;;4932168;29;20406;-56
2024/01/21 08:41:52;;;;;;;6.30;4.13;;;;;;;;;;4937192;29;20032;-58
2024/01/21 08:44:18;;;;;;;6.03;2.95;;;;;;;;;;4936288;28;20035;-59
2024/01/21 08:46:46;;;;;;;6.13;3.33;;;;;;;;;;4934246;29;20478;-59
2024/01/21 08:49:11;;;;;;;8.13;4.18;;;;;;;;;;4937852;28;20513;-58
2024/01/21 08:51:37;;;;;;;7.50;4.22;;;;;;;;;;4931995;29;20031;-60
2024/01/21 08:54:02;;;;;;;6.38;4.15;;;;;;;;;;4932347;29;20053;-58
2024/01/21 08:56:28;;;;;;;5.45;3.35;;;;;;;;;;4936272;29;20082;-60
2024/01/21 08:58:53;;;;;;;7.15;3.83;;;;;;;;;;4936489;29;20027;-59
2024/01/21 09:01:20;;;;;;;8.32;4.82;;;;;;;;;;4935201;29;20110;-60
2024/01/21 09:03:45;;;;;;;9.15;3.92;;;;;;;;;;4933740;29;20036;-60
2024/01/21 09:06:11;;;;;;;7.78;3.38;;;;;;;;;;4934530;29;20039;-60
2024/01/21 09:08:36;;;;;;;6.50;3.65;;;;;;;;;;4928413;29;20086;-61
2024/01/21 09:11:02;;;;;;;6.43;4.22;;;;;;;;;;4931447;29;20035;-60
2024/01/21 09:13:27;;;;;;;5.20;2.85;;;;;;;;;;4930106;29;21369;-61
2024/01/21 09:15:52;;;;;;;6.75;3.03;;;;;;;;;;4933358;29;20056;-60
2024/01/21 09:18:18;;;;;;;4.80;3.38;;;;;;;;;;4932535;29;20114;-60
2024/01/21 09:20:43;;;;;;;6.90;2.65;;;;;;;;;;4932931;29;20035;-60
2024/01/21 09:23:09;;;;;;;4.72;2.90;;;;;;;;;;4933017;29;20043;-60
2024/01/21 09:25:34;;;;;;;6.60;2.85;;;;;;;;;;4933665;29;20039;-59
2024/01/21 09:28:00;;;;;;;6.88;3.03;;;;;;;;;;4934881;29;20034;-60
2024/01/21 09:30:25;;;;;;;3.90;3.05;;;;;;;;;;4934496;29;20032;-61
2024/01/21 09:32:51;;;;;;;4.13;2.05;;;;;;;;;;4935250;29;20050;-60
2024/01/21 09:35:16;;;;;;;5.10;2.63;;;;;;;;;;4928480;28;20444;-60
2024/01/21 09:37:42;;;;;;;4.85;2.83;;;;;;;;;;4928367;29;20035;-58
2024/01/21 09:40:09;;;;;;;4.93;3.05;;;;;;;;;;4928065;29;20061;-59
2024/01/21 09:42:35;;;;;;;3.80;2.17;;;;;;;;;;4926673;29;20023;-60
2024/01/21 09:45:01;;;;;;;5.50;2.28;;;;;;;;;;4927628;29;20055;-59
2024/01/21 09:47:27;;;;;;;3.97;2.92;;;;;;;;;;4931076;29;20449;-59
2024/01/21 09:49:54;;;;;;;5.10;2.28;;;;;;;;;;4930025;29;20039;-57
2024/01/21 09:52:20;;;;;;;7.55;2.28;;;;;;;;;;4930300;29;20119;-59
2024/01/21 09:54:46;;;;;;;13.57;9.95;;;;;;;;;;4924745;29;20127;-59
2024/01/21 09:57:12;;;;;;;16.20;11.55;;;;;;;;;;4925952;29;20046;-60
2024/01/21 09:59:39;;;;;;;15.55;10.45;;;;;;;;;;4927762;29;20135;-59
2024/01/21 10:02:05;;;;;;;12.73;11.02;;;;;;;;;;4928961;29;20027;-59
2024/01/21 10:04:32;;;;;;;17.17;11.35;;;;;;;;;;4930476;28;20043;-59
2024/01/21 10:06:58;;;;;;;17.30;12.43;;;;;;;;;;4931977;29;20039;-58
2024/01/21 10:09:23;;;;;;;16.65;10.88;;;;;;;;;;4927588;29;20040;-58
2024/01/21 10:11:56;;;;;;;13.93;11.98;;;;;;;;;;4930629;29;20047;-56
2024/01/21 10:14:24;;;;;;;17.23;13.57;;;;;;;;;;4935580;29;20131;-57
2024/01/21 10:16:49;;;;;;;13.73;10.80;;;;;;;;;;4933269;29;20548;-56
2024/01/21 10:19:25;;;;;;;14.73;9.98;;;;;;;;;;4938041;29;20056;-57
2024/01/21 10:21:50;;;;;;;;;;;;;;;;;;4938721;29;20443;-58
2024/01/21 10:24:22;;;;;;;8.32;5.28;;;;;;;;;;4934484;29;19925;-56
2024/01/21 10:26:47;;;;;;;9.27;5.78;;;;;;;;;;4940079;29;20040;-57
2024/01/21 10:29:13;;;;;;;7.93;4.00;;;;;;;;;;4930371;29;20050;-56
2024/01/21 10:31:38;;;;;;;4.50;2.38;;;;;;;;;;4936612;29;20031;-58
2024/01/21 10:34:03;;;;;;;5.05;3.78;;;;;;;;;;4934222;29;20046;-56
2024/01/21 10:36:33;;;;;;;5.80;2.35;;;;;;;;;;4931701;29;20051;-59
2024/01/21 10:39:03;;;;;;;5.65;2.85;;;;;;;;;;4935042;29;20036;-59
2024/01/21 10:41:32;;;;;;;4.40;3.40;;;;;;;;;;4935142;29;20034;-59
2024/01/21 10:44:00;;;;;;;6.50;3.88;;;;;;;;;;4935866;29;20067;-59
2024/01/21 10:46:26;;;;;;;8.00;3.13;;;;;;;;;;4939660;29;20406;-59
2024/01/21 10:48:55;;;;;;;5.85;4.35;;;;;;;;;;4936853;29;20023;-59
2024/01/21 10:51:21;;;;;;;;;;;;;;;;;;4936559;29;20501;-59
2024/01/21 10:53:49;;;;;;;9.00;3.38;;;;;;;;;;4939634;29;19915;-57
2024/01/21 10:56:16;;;;;;;4.00;2.75;;;;;;;;;;4938663;29;20114;-58
2024/01/21 10:58:41;;;;;;;3.38;3.08;;;;;;;;;;4936602;29;20087;-58
2024/01/21 11:01:09;;;;;;;6.22;2.80;;;;;;;;;;4936015;29;20044;-59
2024/01/21 11:03:36;;;;;;;10.30;5.57;;;;;;;;;;4935432;29;20027;-57
2024/01/21 11:06:03;;;;;;;11.00;5.18;;;;;;;;;;4936577;29;20068;-58
2024/01/21 11:08:29;;;;;;;10.05;6.00;;;;;;;;;;4935954;29;20023;-58
2024/01/21 11:11:02;;;;;;;6.63;4.35;;;;;;;;;;4937472;29;20126;-59
2024/01/21 11:13:46;;;;;;;4.40;2.50;;;;;;;;;;4937348;29;20036;-59
2024/01/21 11:16:28;;;;;;;7.70;4.22;;;;;;;;;;4937507;29;20055;-55
2024/01/21 11:18:57;;;;;;;7.28;3.47;;;;;;;;;;4937068;29;20031;-54
2024/01/21 11:21:25;;;;;;;;;;;;;;;;;;4937707;29;20043;-56
2024/01/21 11:24:13;;;;;;;5.50;3.10;;;;;;;;;;4935770;29;20358;-54
2024/01/21 11:26:41;;;;;;;7.93;2.58;;;;;;;;;;4938843;29;20479;-56
2024/01/21 11:29:26;;;;;;;5.47;2.67;;;;;;;;;;4934197;29;20048;-57
2024/01/21 11:31:55;;;;;;;4.40;2.85;;;;;;;;;;4935407;29;20032;-59
2024/01/21 11:34:21;;;;;;;8.25;3.08;;;;;;;;;;4934905;29;20394;-58
2024/01/21 11:36:47;;;;;;;5.05;2.47;;;;;;;;;;4933149;29;20055;-59
2024/01/21 11:39:13;;;;;;;5.80;2.72;;;;;;;;;;4937075;29;20494;-57
2024/01/21 11:41:43;;;;;;;6.07;1.90;;;;;;;;;;4935915;29;20063;-56
2024/01/21 11:44:22;;;;;;;4.18;2.17;;;;;;;;;;4937384;29;20102;-56
2024/01/21 11:46:48;;;;;;;7.85;2.70;;;;;;;;;;4937790;29;20095;-59
2024/01/21 11:49:14;;;;;;;7.18;2.55;;;;;;;;;;4943767;28;20094;-57
2024/01/21 11:51:40;;;;;;;6.13;2.33;;;;;;;;;;4940806;29;20506;-56
2024/01/21 11:54:06;;;;;;;4.68;1.40;;;;;;;;;;4935863;29;20042;-57
2024/01/21 11:56:34;;;;;;;3.53;1.55;;;;;;;;;;4938135;29;20020;-57
2024/01/21 11:58:59;;;;;;;5.53;2.13;;;;;;;;;;4936438;29;20024;-55
2024/01/21 12:01:26;;;;;;;5.75;2.45;;;;;;;;;;4936963;29;20119;-55
2024/01/21 12:03:52;;;;;;;4.28;2.00;;;;;;;;;;4933201;29;20043;-58
2024/01/21 12:06:19;;;;;;;5.28;2.67;;;;;;;;;;4937814;29;20423;-57
2024/01/21 12:08:45;;;;;;;3.42;1.48;;;;;;;;;;4931368;29;20083;-57
2024/01/21 12:11:12;;;;;;;6.05;1.38;;;;;;;;;;4929652;29;20107;-58
2024/01/21 12:13:40;;;;;;;3.97;1.65;;;;;;;;;;4934162;29;20377;-57
2024/01/21 12:16:07;;;;;;;6.15;2.78;;;;;;;;;;4934731;29;20040;-56
2024/01/21 12:18:39;;;;;;;4.15;2.08;;;;;;;;;;4931399;29;20031;-54
2024/01/21 12:21:05;;;;;;;5.78;3.17;;;;;;;;;;4935940;29;22151;-56
2024/01/21 12:23:31;;;;;;;4.32;1.92;;;;;;;;;;4933436;29;20035;-58
2024/01/21 12:25:56;;;;;;;4.13;1.25;;;;;;;;;;4929179;29;20134;-58
2024/01/21 12:28:21;;;;;;;3.65;1.73;;;;;;;;;;4932348;29;20039;-59
2024/01/21 12:30:47;;;;;;;7.63;2.33;;;;;;;;;;4935758;29;20051;-58
2024/01/21 12:33:13;;;;;;;9.25;5.68;;;;;;;;;;4934757;29;20032;-59
2024/01/21 12:35:38;;;;;;;12.35;6.28;;;;;;;;;;4935530;29;20047;-59
2024/01/21 12:38:04;;;;;;;11.93;6.97;;;;;;;;;;4931660;29;20042;-60
2024/01/21 12:40:29;;;;;;;5.80;2.50;;;;;;;;;;4933756;29;20039;-59
2024/01/21 12:42:54;;;;;;;9.77;5.32;;;;;;;;;;4929932;29;20055;-59
2024/01/21 12:45:20;;;;;;;3.35;1.27;;;;;;;;;;4937415;29;20040;-59
2024/01/21 12:47:46;;;;;;;3.00;0.85;;;;;;;;;;4934609;29;20051;-59
2024/01/21 12:50:11;;;;;;;2.47;1.40;;;;;;;;;;4937226;29;20043;-58
2024/01/21 12:52:37;;;;;;;8.32;3.33;;;;;;;;;;4936892;29;20054;-58
2024/01/21 12:55:05;;;;;;;5.55;2.30;;;;;;;;;;4935263;29;20158;-59
2024/01/21 12:57:31;;;;;;;3.03;1.50;;;;;;;;;;4937776;29;20028;-59
2024/01/21 12:59:56;;;;;;;5.38;1.25;;;;;;;;;;4936693;29;20048;-59
2024/01/21 13:02:23;;;;;;;5.45;1.73;;;;;;;;;;4931487;29;20405;-58
2024/01/21 13:04:48;;;;;;;4.88;2.05;;;;;;;;;;4936251;29;20047;-59
2024/01/21 13:07:14;;;;;;;4.47;1.38;;;;;;;;;;4936222;29;20071;-58
2024/01/21 13:09:39;;;;;;;7.05;2.88;;;;;;;;;;4935731;29;20040;-58
2024/01/21 13:12:05;;;;;;;5.03;2.33;;;;;;;;;;4933560;29;20028;-59
2024/01/21 13:14:31;;;;;;;5.30;2.70;;;;;;;;;;4937301;29;20083;-58
2024/01/21 13:16:57;;;;;;;6.15;1.90;;;;;;;;;;4937041;29;20110;-59
2024/01/21 13:19:23;;;;;;;4.55;2.33;;;;;;;;;;4930916;29;20048;-59
2024/01/21 13:21:49;;;;;;;4.63;1.83;;;;;;;;;;4930607;29;20040;-59
2024/01/21 13:24:15;;;;;;;5.80;2.60;;;;;;;;;;4928758;29;20055;-58
2024/01/21 13:26:41;;;;;;;4.78;3.78;;;;;;;;;;4936435;29;20441;-59
2024/01/21 13:31:33;;;;;;;5.50;4.75;;;;;;;;;;4937044;29;20031;-58
2024/01/21 13:34:01;;;;;;;4.00;2.33;;;;;;;;;;4933376;29;20083;-59
2024/01/21 13:36:31;;;;;;;6.85;2.50;;;;;;;;;;4935782;29;20028;-59
2024/01/21 13:38:57;;;;;;;3.13;1.17;;;;;;;;;;4936098;29;20083;-58
2024/01/21 13:41:23;;;;;;;2.80;2.15;;;;;;;;;;4937513;29;20086;-58
2024/01/21 13:43:49;;;;;;;5.20;1.00;;;;;;;;;;4933160;29;20498;-59
2024/01/21 13:46:15;;;;;;;7.10;2.03;;;;;;;;;;4936976;29;20095;-58
2024/01/21 13:48:42;;;;;;;5.45;2.75;;;;;;;;;;4936917;29;20439;-59
2024/01/21 13:51:09;;;;;;;3.75;2.35;;;;;;;;;;4939224;29;20047;-56
2024/01/21 13:53:35;;;;;;;6.35;1.75;;;;;;;;;;4940385;29;20030;-57
2024/01/21 13:56:01;;;;;;;4.80;1.25;;;;;;;;;;4939472;29;20110;-58
2024/01/21 13:58:26;;;;;;;3.85;1.23;;;;;;;;;;4938483;29;20026;-59
2024/01/21 14:00:52;;;;;;;2.67;1.25;;;;;;;;;;4939682;29;20095;-59
2024/01/21 14:03:17;;;;;;;4.22;2.00;;;;;;;;;;4939845;29;20035;-60
2024/01/21 14:05:43;;;;;;;8.38;4.75;;;;;;;;;;4935444;29;20054;-58
2024/01/21 14:08:08;;;;;;;9.65;6.88;;;;;;;;;;4939079;29;20031;-58
2024/01/21 14:10:34;;;;;;;6.57;3.90;;;;;;;;;;4938111;29;20051;-58
2024/01/21 14:13:00;;;;;;;11.23;6.22;;;;;;;;;;4941280;29;20098;-57
2024/01/21 14:15:25;;;;;;;13.73;6.65;;;;;;;;;;4937147;29;20081;-58
2024/01/21 14:17:51;;;;;;;9.45;5.53;;;;;;;;;;4939067;29;20501;-58
2024/01/21 14:20:17;;;;;;;7.72;4.50;;;;;;;;;;4938585;29;20060;-59
2024/01/21 14:22:44;;;;;;;11.63;6.85;;;;;;;;;;4937769;29;20027;-59
2024/01/21 14:25:22;;;;;;;11.98;5.22;;;;;;;;;;4939469;29;20055;-58
2024/01/21 14:27:48;;;;;;;10.85;4.70;;;;;;;;;;4933586;29;20083;-59
2024/01/21 14:30:20;;;;;;;8.65;4.68;;;;;;;;;;4937628;29;20473;-58
2024/01/21 14:32:45;;;;;;;9.18;4.95;;;;;;;;;;4940258;29;20102;-57
2024/01/21 14:35:11;;;;;;;7.25;4.78;;;;;;;;;;4939116;29;20090;-57